sensor_id;sensor_type;location;lat;lon;timestamp;P1;durP1;ratioP1;P2;durP2;ratioP2
78416;SDS011;67715;46.170;6.140;2024-03-02T00:01:50;7.13;;;3.87;;
78416;SDS011;67715;46.170;6.140;2024-03-02T00:04:15;5.57;;;4.07;;
78416;SDS011;67715;46.170;6.140;2024-03-02T00:06:40;10.10;;;3.80;;
78416;SDS011;67715;46.170;6.140;2024-03-02T00:09:06;7.40;;;4.30;;
78416;SDS011;67715;46.170;6.140;2024-03-02T00:11:37;8.27;;;4.05;;
78416;SDS011;67715;46.170;6.140;2024-03-02T00:14:02;6.95;;;3.50;;
78416;SDS011;67715;46.170;6.140;2024-03-02T00:16:31;6.60;;;3.50;;
78416;SDS011;67715;46.170;6.140;2024-03-02T00:19:01;5.57;;;3.58;;
78416;SDS011;67715;46.170;6.140;2024-03-02T00:21:27;6.32;;;3.67;;
78416;SDS011;67715;46.170;6.140;2024-03-02T00:23:53;6.90;;;3.50;;
78416;SDS011;67715;46.170;6.140;2024-03-02T00:26:18;6.85;;;3.80;;
78416;SDS011;67715;46.170;6.140;2024-03-02T00:28:44;5.38;;;3.42;;
78416;SDS011;67715;46.170;6.140;2024-03-02T00:33:42;6.38;;;3.38;;
78416;SDS011;67715;46.170;6.140;2024-03-02T00:36:09;6.70;;;3.47;;
78416;SDS011;67715;46.170;6.140;2024-03-02T00:38:44;7.70;;;3.85;;
78416;SDS011;67715;46.170;6.140;2024-03-02T00:41:15;7.85;;;3.50;;
78416;SDS011;67715;46.170;6.140;2024-03-02T00:46:11;8.02;;;3.65;;
78416;SDS011;67715;46.170;6.140;2024-03-02T00:48:38;5.38;;;3.53;;
78416;SDS011;67715;46.170;6.140;2024-03-02T00:51:04;7.03;;;4.20;;
78416;SDS011;67715;46.170;6.140;2024-03-02T00:53:29;4.70;;;3.33;;
78416;SDS011;67715;46.170;6.140;2024-03-02T00:55:57;6.50;;;3.58;;
78416;SDS011;67715;46.170;6.140;2024-03-02T00:58:22;7.55;;;3.22;;
78416;SDS011;67715;46.170;6.140;2024-03-02T01:00:48;7.20;;;3.60;;
78416;SDS011;67715;46.170;6.140;2024-03-02T01:03:13;6.85;;;3.75;;
78416;SDS011;67715;46.170;6.140;2024-03-02T01:05:42;6.27;;;3.40;;
78416;SDS011;67715;46.170;6.140;2024-03-02T01:08:08;5.07;;;3.10;;
78416;SDS011;67715;46.170;6.140;2024-03-02T01:10:33;7.30;;;3.65;;
78416;SDS011;67715;46.170;6.140;2024-03-02T01:12:59;7.55;;;3.88;;
78416;SDS011;67715;46.170;6.140;2024-03-02T01:15:24;6.90;;;3.83;;
78416;SDS011;67715;46.170;6.140;2024-03-02T01:17:50;6.10;;;3.37;;
78416;SDS011;67715;46.170;6.140;2024-03-02T01:20:15;5.47;;;3.80;;
78416;SDS011;67715;46.170;6.140;2024-03-02T01:22:40;7.47;;;3.27;;
78416;SDS011;67715;46.170;6.140;2024-03-02T01:25:06;6.63;;;3.87;;
78416;SDS011;67715;46.170;6.140;2024-03-02T01:27:31;6.45;;;3.30;;
78416;SDS011;67715;46.170;6.140;2024-03-02T01:29:57;5.90;;;3.17;;
78416;SDS011;67715;46.170;6.140;2024-03-02T01:32:24;6.25;;;3.28;;
78416;SDS011;67715;46.170;6.140;2024-03-02T01:34:50;5.97;;;3.87;;
78416;SDS011;67715;46.170;6.140;2024-03-02T01:37:15;5.00;;;3.23;;
78416;SDS011;67715;46.170;6.140;2024-03-02T01:39:40;7.97;;;3.43;;
78416;SDS011;67715;46.170;6.140;2024-03-02T01:42:05;9.83;;;3.80;;
78416;SDS011;67715;46.170;6.140;2024-03-02T01:44:31;5.10;;;3.10;;
78416;SDS011;67715;46.170;6.140;2024-03-02T01:46:56;5.90;;;3.30;;
78416;SDS011;67715;46.170;6.140;2024-03-02T01:49:21;6.47;;;4.10;;
78416;SDS011;67715;46.170;6.140;2024-03-02T01:51:47;9.73;;;3.95;;
78416;SDS011;67715;46.170;6.140;2024-03-02T01:54:12;4.90;;;3.17;;
78416;SDS011;67715;46.170;6.140;2024-03-02T01:56:38;5.63;;;3.53;;
78416;SDS011;67715;46.170;6.140;2024-03-02T01:59:03;8.47;;;3.23;;
78416;SDS011;67715;46.170;6.140;2024-03-02T02:01:28;4.10;;;2.87;;
78416;SDS011;67715;46.170;6.140;2024-03-02T02:03:54;7.00;;;2.90;;
78416;SDS011;67715;46.170;6.140;2024-03-02T02:06:19;6.27;;;3.17;;
78416;SDS011;67715;46.170;6.140;2024-03-02T02:08:44;8.00;;;3.30;;
78416;SDS011;67715;46.170;6.140;2024-03-02T02:11:10;5.53;;;2.90;;
78416;SDS011;67715;46.170;6.140;2024-03-02T02:13:35;6.40;;;3.38;;
78416;SDS011;67715;46.170;6.140;2024-03-02T02:16:05;7.60;;;2.67;;
78416;SDS011;67715;46.170;6.140;2024-03-02T02:18:31;4.53;;;3.00;;
78416;SDS011;67715;46.170;6.140;2024-03-02T02:20:56;8.23;;;3.43;;
78416;SDS011;67715;46.170;6.140;2024-03-02T02:23:21;8.07;;;3.63;;
78416;SDS011;67715;46.170;6.140;2024-03-02T02:25:47;5.30;;;3.17;;
78416;SDS011;67715;46.170;6.140;2024-03-02T02:28:12;5.45;;;3.20;;
78416;SDS011;67715;46.170;6.140;2024-03-02T02:30:37;6.60;;;3.50;;
78416;SDS011;67715;46.170;6.140;2024-03-02T02:33:03;6.68;;;3.08;;
78416;SDS011;67715;46.170;6.140;2024-03-02T02:35:28;6.43;;;3.25;;
78416;SDS011;67715;46.170;6.140;2024-03-02T02:37:54;4.00;;;3.00;;
78416;SDS011;67715;46.170;6.140;2024-03-02T02:40:20;7.10;;;3.90;;
78416;SDS011;67715;46.170;6.140;2024-03-02T02:42:46;5.28;;;3.60;;
78416;SDS011;67715;46.170;6.140;2024-03-02T02:45:12;5.68;;;3.63;;
78416;SDS011;67715;46.170;6.140;2024-03-02T02:47:39;7.07;;;3.20;;
78416;SDS011;67715;46.170;6.140;2024-03-02T02:50:06;7.75;;;3.55;;
78416;SDS011;67715;46.170;6.140;2024-03-02T02:52:36;6.55;;;3.42;;
78416;SDS011;67715;46.170;6.140;2024-03-02T02:55:04;7.25;;;3.53;;
78416;SDS011;67715;46.170;6.140;2024-03-02T02:57:34;6.95;;;3.65;;
78416;SDS011;67715;46.170;6.140;2024-03-02T03:00:10;7.38;;;3.45;;
78416;SDS011;67715;46.170;6.140;2024-03-02T03:02:39;5.32;;;3.08;;
78416;SDS011;67715;46.170;6.140;2024-03-02T03:05:07;7.15;;;3.70;;
78416;SDS011;67715;46.170;6.140;2024-03-02T03:07:36;6.32;;;3.20;;
78416;SDS011;67715;46.170;6.140;2024-03-02T03:10:03;5.43;;;2.80;;
78416;SDS011;67715;46.170;6.140;2024-03-02T03:12:29;7.45;;;3.45;;
78416;SDS011;67715;46.170;6.140;2024-03-02T03:14:55;7.03;;;3.83;;
78416;SDS011;67715;46.170;6.140;2024-03-02T03:17:21;6.90;;;3.90;;
78416;SDS011;67715;46.170;6.140;2024-03-02T03:19:46;4.90;;;3.05;;
78416;SDS011;67715;46.170;6.140;2024-03-02T03:22:12;9.43;;;3.63;;
78416;SDS011;67715;46.170;6.140;2024-03-02T03:24:38;5.57;;;3.15;;
78416;SDS011;67715;46.170;6.140;2024-03-02T03:27:03;5.53;;;3.60;;
78416;SDS011;67715;46.170;6.140;2024-03-02T03:29:28;5.67;;;3.30;;
78416;SDS011;67715;46.170;6.140;2024-03-02T03:31:54;5.37;;;3.07;;
78416;SDS011;67715;46.170;6.140;2024-03-02T03:34:19;5.03;;;2.80;;
78416;SDS011;67715;46.170;6.140;2024-03-02T03:36:44;6.37;;;3.60;;
78416;SDS011;67715;46.170;6.140;2024-03-02T03:39:10;3.90;;;2.70;;
78416;SDS011;67715;46.170;6.140;2024-03-02T03:41:35;6.70;;;3.10;;
78416;SDS011;67715;46.170;6.140;2024-03-02T03:44:00;5.47;;;3.38;;
78416;SDS011;67715;46.170;6.140;2024-03-02T03:46:26;4.63;;;3.07;;
78416;SDS011;67715;46.170;6.140;2024-03-02T03:48:51;5.43;;;2.77;;
78416;SDS011;67715;46.170;6.140;2024-03-02T03:51:16;4.23;;;2.60;;
78416;SDS011;67715;46.170;6.140;2024-03-02T03:53:42;5.00;;;2.80;;
78416;SDS011;67715;46.170;6.140;2024-03-02T03:56:07;5.30;;;2.50;;
78416;SDS011;67715;46.170;6.140;2024-03-02T03:58:32;5.40;;;2.97;;
78416;SDS011;67715;46.170;6.140;2024-03-02T04:00:58;5.17;;;3.63;;
78416;SDS011;67715;46.170;6.140;2024-03-02T04:03:23;4.38;;;2.88;;
78416;SDS011;67715;46.170;6.140;2024-03-02T04:05:48;4.10;;;2.77;;
78416;SDS011;67715;46.170;6.140;2024-03-02T04:08:14;5.80;;;3.63;;
78416;SDS011;67715;46.170;6.140;2024-03-02T04:10:39;4.43;;;3.30;;
78416;SDS011;67715;46.170;6.140;2024-03-02T04:13:05;4.07;;;2.67;;
78416;SDS011;67715;46.170;6.140;2024-03-02T04:15:31;5.25;;;2.97;;
78416;SDS011;67715;46.170;6.140;2024-03-02T04:17:56;5.90;;;3.50;;
78416;SDS011;67715;46.170;6.140;2024-03-02T04:20:21;4.47;;;2.60;;
78416;SDS011;67715;46.170;6.140;2024-03-02T04:22:46;4.93;;;3.00;;
78416;SDS011;67715;46.170;6.140;2024-03-02T04:25:12;4.47;;;2.50;;
78416;SDS011;67715;46.170;6.140;2024-03-02T04:27:37;5.00;;;2.65;;
78416;SDS011;67715;46.170;6.140;2024-03-02T04:30:03;4.80;;;2.53;;
78416;SDS011;67715;46.170;6.140;2024-03-02T04:32:30;4.03;;;2.80;;
78416;SDS011;67715;46.170;6.140;2024-03-02T04:34:55;5.10;;;3.30;;
78416;SDS011;67715;46.170;6.140;2024-03-02T04:37:20;6.00;;;3.37;;
78416;SDS011;67715;46.170;6.140;2024-03-02T04:39:46;6.33;;;3.17;;
78416;SDS011;67715;46.170;6.140;2024-03-02T04:42:11;3.93;;;2.80;;
78416;SDS011;67715;46.170;6.140;2024-03-02T04:44:36;5.87;;;3.00;;
78416;SDS011;67715;46.170;6.140;2024-03-02T04:47:03;6.22;;;2.47;;
78416;SDS011;67715;46.170;6.140;2024-03-02T04:49:28;6.47;;;3.25;;
78416;SDS011;67715;46.170;6.140;2024-03-02T04:51:55;4.97;;;3.00;;
78416;SDS011;67715;46.170;6.140;2024-03-02T04:54:20;4.88;;;3.05;;
78416;SDS011;67715;46.170;6.140;2024-03-02T04:56:45;4.53;;;3.30;;
78416;SDS011;67715;46.170;6.140;2024-03-02T04:59:15;7.15;;;2.72;;
78416;SDS011;67715;46.170;6.140;2024-03-02T05:01:41;6.45;;;2.85;;
78416;SDS011;67715;46.170;6.140;2024-03-02T05:04:06;4.03;;;2.27;;
78416;SDS011;67715;46.170;6.140;2024-03-02T05:06:32;5.93;;;2.67;;
78416;SDS011;67715;46.170;6.140;2024-03-02T05:08:57;4.70;;;2.47;;
78416;SDS011;67715;46.170;6.140;2024-03-02T05:11:22;4.40;;;2.90;;
78416;SDS011;67715;46.170;6.140;2024-03-02T05:14:05;5.20;;;2.70;;
78416;SDS011;67715;46.170;6.140;2024-03-02T05:16:34;5.97;;;3.40;;
78416;SDS011;67715;46.170;6.140;2024-03-02T05:19:00;4.97;;;3.13;;
78416;SDS011;67715;46.170;6.140;2024-03-02T05:21:25;5.70;;;2.70;;
78416;SDS011;67715;46.170;6.140;2024-03-02T05:23:50;5.87;;;3.20;;
78416;SDS011;67715;46.170;6.140;2024-03-02T05:26:16;5.67;;;2.80;;
78416;SDS011;67715;46.170;6.140;2024-03-02T05:28:41;6.05;;;3.50;;
78416;SDS011;67715;46.170;6.140;2024-03-02T05:31:09;5.07;;;2.63;;
78416;SDS011;67715;46.170;6.140;2024-03-02T05:33:37;4.93;;;3.03;;
78416;SDS011;67715;46.170;6.140;2024-03-02T05:36:03;4.38;;;3.10;;
78416;SDS011;67715;46.170;6.140;2024-03-02T05:38:28;5.53;;;3.22;;
78416;SDS011;67715;46.170;6.140;2024-03-02T05:40:53;4.43;;;2.97;;
78416;SDS011;67715;46.170;6.140;2024-03-02T05:43:19;4.65;;;3.33;;
78416;SDS011;67715;46.170;6.140;2024-03-02T05:45:45;5.35;;;3.08;;
78416;SDS011;67715;46.170;6.140;2024-03-02T05:48:10;5.80;;;3.50;;
78416;SDS011;67715;46.170;6.140;2024-03-02T05:50:35;4.00;;;2.67;;
78416;SDS011;67715;46.170;6.140;2024-03-02T05:53:01;7.40;;;3.37;;
78416;SDS011;67715;46.170;6.140;2024-03-02T05:55:26;6.47;;;3.17;;
78416;SDS011;67715;46.170;6.140;2024-03-02T05:57:51;6.73;;;2.93;;
78416;SDS011;67715;46.170;6.140;2024-03-02T06:00:32;4.25;;;2.58;;
78416;SDS011;67715;46.170;6.140;2024-03-02T06:02:57;5.35;;;3.38;;
78416;SDS011;67715;46.170;6.140;2024-03-02T06:05:23;3.75;;;2.55;;
78416;SDS011;67715;46.170;6.140;2024-03-02T06:07:48;6.03;;;2.65;;
78416;SDS011;67715;46.170;6.140;2024-03-02T06:10:14;4.50;;;2.70;;
78416;SDS011;67715;46.170;6.140;2024-03-02T06:12:39;6.00;;;2.78;;
78416;SDS011;67715;46.170;6.140;2024-03-02T06:15:05;4.32;;;2.63;;
78416;SDS011;67715;46.170;6.140;2024-03-02T06:17:30;5.13;;;3.28;;
78416;SDS011;67715;46.170;6.140;2024-03-02T06:19:56;5.00;;;2.97;;
78416;SDS011;67715;46.170;6.140;2024-03-02T06:22:21;5.57;;;2.87;;
78416;SDS011;67715;46.170;6.140;2024-03-02T06:24:49;6.30;;;3.03;;
78416;SDS011;67715;46.170;6.140;2024-03-02T06:27:15;5.43;;;2.60;;
78416;SDS011;67715;46.170;6.140;2024-03-02T06:29:40;6.60;;;3.13;;
78416;SDS011;67715;46.170;6.140;2024-03-02T06:32:05;4.17;;;2.30;;
78416;SDS011;67715;46.170;6.140;2024-03-02T06:34:31;5.03;;;2.67;;
78416;SDS011;67715;46.170;6.140;2024-03-02T06:36:56;5.47;;;3.73;;
78416;SDS011;67715;46.170;6.140;2024-03-02T06:39:21;5.67;;;2.93;;
78416;SDS011;67715;46.170;6.140;2024-03-02T06:41:47;6.10;;;3.17;;
78416;SDS011;67715;46.170;6.140;2024-03-02T06:44:12;3.97;;;2.20;;
78416;SDS011;67715;46.170;6.140;2024-03-02T06:46:38;5.28;;;2.78;;
78416;SDS011;67715;46.170;6.140;2024-03-02T06:49:03;5.65;;;3.00;;
78416;SDS011;67715;46.170;6.140;2024-03-02T06:51:29;6.07;;;2.80;;
78416;SDS011;67715;46.170;6.140;2024-03-02T06:53:54;4.73;;;2.73;;
78416;SDS011;67715;46.170;6.140;2024-03-02T06:56:20;4.30;;;3.00;;
78416;SDS011;67715;46.170;6.140;2024-03-02T06:58:45;5.53;;;3.00;;
78416;SDS011;67715;46.170;6.140;2024-03-02T07:01:11;5.22;;;2.78;;
78416;SDS011;67715;46.170;6.140;2024-03-02T07:03:37;12.80;;;3.08;;
78416;SDS011;67715;46.170;6.140;2024-03-02T07:06:04;4.43;;;2.70;;
78416;SDS011;67715;46.170;6.140;2024-03-02T07:08:29;6.95;;;2.78;;
78416;SDS011;67715;46.170;6.140;2024-03-02T07:10:55;4.83;;;2.40;;
78416;SDS011;67715;46.170;6.140;2024-03-02T07:13:21;4.68;;;2.65;;
78416;SDS011;67715;46.170;6.140;2024-03-02T07:15:46;4.70;;;2.90;;
78416;SDS011;67715;46.170;6.140;2024-03-02T07:18:17;7.22;;;3.10;;
78416;SDS011;67715;46.170;6.140;2024-03-02T07:20:42;8.73;;;4.07;;
78416;SDS011;67715;46.170;6.140;2024-03-02T07:23:08;9.53;;;5.43;;
78416;SDS011;67715;46.170;6.140;2024-03-02T07:25:34;10.15;;;4.55;;
78416;SDS011;67715;46.170;6.140;2024-03-02T07:27:59;5.17;;;3.47;;
78416;SDS011;67715;46.170;6.140;2024-03-02T07:30:24;6.40;;;2.87;;
78416;SDS011;67715;46.170;6.140;2024-03-02T07:32:50;6.47;;;3.40;;
78416;SDS011;67715;46.170;6.140;2024-03-02T07:35:15;4.45;;;2.88;;
78416;SDS011;67715;46.170;6.140;2024-03-02T07:37:41;5.77;;;2.73;;
78416;SDS011;67715;46.170;6.140;2024-03-02T07:40:07;5.05;;;3.17;;
78416;SDS011;67715;46.170;6.140;2024-03-02T07:42:36;3.75;;;2.72;;
78416;SDS011;67715;46.170;6.140;2024-03-02T07:45:02;5.82;;;3.08;;
78416;SDS011;67715;46.170;6.140;2024-03-02T07:47:27;4.55;;;2.55;;
78416;SDS011;67715;46.170;6.140;2024-03-02T07:49:52;2.97;;;2.30;;
78416;SDS011;67715;46.170;6.140;2024-03-02T07:52:18;4.93;;;2.53;;
78416;SDS011;67715;46.170;6.140;2024-03-02T07:54:43;4.80;;;2.50;;
78416;SDS011;67715;46.170;6.140;2024-03-02T07:57:08;5.40;;;2.70;;
78416;SDS011;67715;46.170;6.140;2024-03-02T07:59:34;4.82;;;2.45;;
78416;SDS011;67715;46.170;6.140;2024-03-02T08:01:59;4.93;;;2.53;;
78416;SDS011;67715;46.170;6.140;2024-03-02T08:04:25;4.35;;;2.22;;
78416;SDS011;67715;46.170;6.140;2024-03-02T08:06:51;4.23;;;2.77;;
78416;SDS011;67715;46.170;6.140;2024-03-02T08:09:16;7.03;;;3.00;;
78416;SDS011;67715;46.170;6.140;2024-03-02T08:11:41;5.77;;;2.63;;
78416;SDS011;67715;46.170;6.140;2024-03-02T08:14:07;4.10;;;2.07;;
78416;SDS011;67715;46.170;6.140;2024-03-02T08:16:32;3.87;;;2.43;;
78416;SDS011;67715;46.170;6.140;2024-03-02T08:18:58;3.78;;;2.03;;
78416;SDS011;67715;46.170;6.140;2024-03-02T08:21:23;3.70;;;2.00;;
78416;SDS011;67715;46.170;6.140;2024-03-02T08:23:49;3.33;;;2.20;;
78416;SDS011;67715;46.170;6.140;2024-03-02T08:26:15;4.70;;;2.35;;
78416;SDS011;67715;46.170;6.140;2024-03-02T08:28:40;4.00;;;2.40;;
78416;SDS011;67715;46.170;6.140;2024-03-02T08:31:06;3.70;;;2.00;;
78416;SDS011;67715;46.170;6.140;2024-03-02T08:33:32;4.10;;;2.60;;
78416;SDS011;67715;46.170;6.140;2024-03-02T08:35:57;3.17;;;2.13;;
78416;SDS011;67715;46.170;6.140;2024-03-02T08:38:22;3.72;;;2.15;;
78416;SDS011;67715;46.170;6.140;2024-03-02T08:40:48;3.47;;;2.13;;
78416;SDS011;67715;46.170;6.140;2024-03-02T08:43:14;4.93;;;1.85;;
78416;SDS011;67715;46.170;6.140;2024-03-02T08:45:40;2.88;;;2.08;;
78416;SDS011;67715;46.170;6.140;2024-03-02T08:48:06;4.17;;;2.70;;
78416;SDS011;67715;46.170;6.140;2024-03-02T08:50:33;3.47;;;2.08;;
78416;SDS011;67715;46.170;6.140;2024-03-02T08:52:59;3.10;;;2.10;;
78416;SDS011;67715;46.170;6.140;2024-03-02T08:55:24;5.60;;;2.53;;
78416;SDS011;67715;46.170;6.140;2024-03-02T08:57:49;3.73;;;2.00;;
78416;SDS011;67715;46.170;6.140;2024-03-02T09:00:15;6.40;;;2.05;;
78416;SDS011;67715;46.170;6.140;2024-03-02T09:02:42;3.13;;;2.10;;
78416;SDS011;67715;46.170;6.140;2024-03-02T09:05:09;7.25;;;2.92;;
78416;SDS011;67715;46.170;6.140;2024-03-02T09:07:34;4.93;;;2.55;;
78416;SDS011;67715;46.170;6.140;2024-03-02T09:09:59;3.80;;;2.50;;
78416;SDS011;67715;46.170;6.140;2024-03-02T09:12:25;4.77;;;2.53;;
78416;SDS011;67715;46.170;6.140;2024-03-02T09:14:50;4.07;;;2.27;;
78416;SDS011;67715;46.170;6.140;2024-03-02T09:17:15;4.03;;;2.37;;
78416;SDS011;67715;46.170;6.140;2024-03-02T09:19:41;3.70;;;2.30;;
78416;SDS011;67715;46.170;6.140;2024-03-02T09:22:06;3.60;;;2.23;;
78416;SDS011;67715;46.170;6.140;2024-03-02T09:24:32;4.33;;;2.43;;
78416;SDS011;67715;46.170;6.140;2024-03-02T09:26:58;3.88;;;2.15;;
78416;SDS011;67715;46.170;6.140;2024-03-02T09:29:24;2.60;;;2.17;;
78416;SDS011;67715;46.170;6.140;2024-03-02T09:31:49;5.53;;;2.13;;
78416;SDS011;67715;46.170;6.140;2024-03-02T09:34:15;3.47;;;2.20;;
78416;SDS011;67715;46.170;6.140;2024-03-02T09:36:41;4.68;;;2.28;;
78416;SDS011;67715;46.170;6.140;2024-03-02T09:39:07;4.30;;;2.50;;
78416;SDS011;67715;46.170;6.140;2024-03-02T09:41:34;4.25;;;1.75;;
78416;SDS011;67715;46.170;6.140;2024-03-02T09:44:00;3.75;;;2.28;;
78416;SDS011;67715;46.170;6.140;2024-03-02T09:46:26;3.28;;;2.20;;
78416;SDS011;67715;46.170;6.140;2024-03-02T09:48:51;5.90;;;2.00;;
78416;SDS011;67715;46.170;6.140;2024-03-02T09:51:17;3.23;;;2.00;;
78416;SDS011;67715;46.170;6.140;2024-03-02T09:53:44;2.58;;;2.13;;
78416;SDS011;67715;46.170;6.140;2024-03-02T09:56:10;8.35;;;2.35;;
78416;SDS011;67715;46.170;6.140;2024-03-02T09:58:35;3.53;;;2.30;;
78416;SDS011;67715;46.170;6.140;2024-03-02T10:01:01;4.07;;;2.37;;
78416;SDS011;67715;46.170;6.140;2024-03-02T10:03:26;3.23;;;1.97;;
78416;SDS011;67715;46.170;6.140;2024-03-02T10:05:52;3.47;;;2.10;;
78416;SDS011;67715;46.170;6.140;2024-03-02T10:08:17;4.05;;;2.45;;
78416;SDS011;67715;46.170;6.140;2024-03-02T10:10:43;2.73;;;1.80;;
78416;SDS011;67715;46.170;6.140;2024-03-02T10:13:09;4.60;;;2.38;;
78416;SDS011;67715;46.170;6.140;2024-03-02T10:15:35;3.35;;;2.00;;
78416;SDS011;67715;46.170;6.140;2024-03-02T10:18:02;4.65;;;2.80;;
78416;SDS011;67715;46.170;6.140;2024-03-02T10:20:33;3.92;;;2.60;;
78416;SDS011;67715;46.170;6.140;2024-03-02T10:23:11;4.40;;;2.00;;
78416;SDS011;67715;46.170;6.140;2024-03-02T10:25:41;2.78;;;2.03;;
78416;SDS011;67715;46.170;6.140;2024-03-02T10:28:06;5.30;;;2.08;;
78416;SDS011;67715;46.170;6.140;2024-03-02T10:30:32;5.40;;;2.43;;
78416;SDS011;67715;46.170;6.140;2024-03-02T10:32:58;4.60;;;2.10;;
78416;SDS011;67715;46.170;6.140;2024-03-02T10:35:25;4.25;;;2.30;;
78416;SDS011;67715;46.170;6.140;2024-03-02T10:37:51;4.15;;;2.33;;
78416;SDS011;67715;46.170;6.140;2024-03-02T10:40:17;3.03;;;2.05;;
78416;SDS011;67715;46.170;6.140;2024-03-02T10:42:43;3.40;;;2.05;;
78416;SDS011;67715;46.170;6.140;2024-03-02T10:45:10;3.53;;;2.20;;
78416;SDS011;67715;46.170;6.140;2024-03-02T10:47:36;3.80;;;2.25;;
78416;SDS011;67715;46.170;6.140;2024-03-02T10:50:02;5.90;;;2.47;;
78416;SDS011;67715;46.170;6.140;2024-03-02T10:52:33;4.05;;;2.10;;
78416;SDS011;67715;46.170;6.140;2024-03-02T10:55:01;3.15;;;2.10;;
78416;SDS011;67715;46.170;6.140;2024-03-02T10:57:31;5.03;;;2.20;;
78416;SDS011;67715;46.170;6.140;2024-03-02T11:00:02;4.18;;;2.08;;
78416;SDS011;67715;46.170;6.140;2024-03-02T11:02:28;3.13;;;2.00;;
78416;SDS011;67715;46.170;6.140;2024-03-02T11:04:55;3.53;;;2.30;;
78416;SDS011;67715;46.170;6.140;2024-03-02T11:07:21;4.00;;;2.22;;
78416;SDS011;67715;46.170;6.140;2024-03-02T11:09:52;3.67;;;2.00;;
78416;SDS011;67715;46.170;6.140;2024-03-02T11:12:22;5.50;;;2.35;;
78416;SDS011;67715;46.170;6.140;2024-03-02T11:14:48;3.15;;;1.90;;
78416;SDS011;67715;46.170;6.140;2024-03-02T11:17:17;2.53;;;1.48;;
78416;SDS011;67715;46.170;6.140;2024-03-02T11:19:42;4.38;;;2.15;;
78416;SDS011;67715;46.170;6.140;2024-03-02T11:22:08;3.15;;;1.65;;
78416;SDS011;67715;46.170;6.140;2024-03-02T11:24:34;2.13;;;1.48;;
78416;SDS011;67715;46.170;6.140;2024-03-02T11:27:00;3.08;;;1.60;;
78416;SDS011;67715;46.170;6.140;2024-03-02T11:29:46;4.68;;;1.60;;
78416;SDS011;67715;46.170;6.140;2024-03-02T11:34:42;1.73;;;1.15;;
78416;SDS011;67715;46.170;6.140;2024-03-02T11:37:20;3.22;;;1.10;;
78416;SDS011;67715;46.170;6.140;2024-03-02T11:39:46;2.00;;;1.40;;
78416;SDS011;67715;46.170;6.140;2024-03-02T11:42:13;2.00;;;1.30;;
78416;SDS011;67715;46.170;6.140;2024-03-02T11:44:39;3.97;;;1.65;;
78416;SDS011;67715;46.170;6.140;2024-03-02T11:47:08;3.17;;;1.10;;
78416;SDS011;67715;46.170;6.140;2024-03-02T11:49:50;3.63;;;1.63;;
78416;SDS011;67715;46.170;6.140;2024-03-02T11:52:19;2.60;;;1.38;;
78416;SDS011;67715;46.170;6.140;2024-03-02T11:54:46;3.25;;;1.67;;
78416;SDS011;67715;46.170;6.140;2024-03-02T11:57:13;4.38;;;2.05;;
78416;SDS011;67715;46.170;6.140;2024-03-02T11:59:39;3.90;;;2.20;;
78416;SDS011;67715;46.170;6.140;2024-03-02T12:02:05;3.95;;;2.15;;
78416;SDS011;67715;46.170;6.140;2024-03-02T12:04:31;2.75;;;1.85;;
78416;SDS011;67715;46.170;6.140;2024-03-02T12:06:59;2.63;;;1.90;;
78416;SDS011;67715;46.170;6.140;2024-03-02T12:09:28;5.53;;;2.10;;
78416;SDS011;67715;46.170;6.140;2024-03-02T12:12:03;2.42;;;1.75;;
78416;SDS011;67715;46.170;6.140;2024-03-02T12:14:33;3.33;;;2.03;;
78416;SDS011;67715;46.170;6.140;2024-03-02T12:17:00;2.60;;;1.70;;
78416;SDS011;67715;46.170;6.140;2024-03-02T12:19:26;4.47;;;1.80;;
78416;SDS011;67715;46.170;6.140;2024-03-02T12:21:52;2.90;;;1.85;;
78416;SDS011;67715;46.170;6.140;2024-03-02T12:24:21;2.00;;;1.60;;
78416;SDS011;67715;46.170;6.140;2024-03-02T12:26:47;1.70;;;1.30;;
78416;SDS011;67715;46.170;6.140;2024-03-02T12:29:13;3.70;;;1.92;;
78416;SDS011;67715;46.170;6.140;2024-03-02T12:31:38;3.55;;;1.70;;
78416;SDS011;67715;46.170;6.140;2024-03-02T12:34:04;4.78;;;2.50;;
78416;SDS011;67715;46.170;6.140;2024-03-02T12:36:29;3.28;;;1.75;;
78416;SDS011;67715;46.170;6.140;2024-03-02T12:38:55;4.27;;;1.70;;
78416;SDS011;67715;46.170;6.140;2024-03-02T12:41:20;2.60;;;1.88;;
78416;SDS011;67715;46.170;6.140;2024-03-02T12:43:46;4.57;;;2.30;;
78416;SDS011;67715;46.170;6.140;2024-03-02T12:46:11;3.78;;;2.30;;
78416;SDS011;67715;46.170;6.140;2024-03-02T12:48:37;14.50;;;2.78;;
78416;SDS011;67715;46.170;6.140;2024-03-02T12:51:05;4.60;;;1.85;;
78416;SDS011;67715;46.170;6.140;2024-03-02T12:53:31;2.15;;;1.60;;
78416;SDS011;67715;46.170;6.140;2024-03-02T12:55:56;2.87;;;1.73;;
78416;SDS011;67715;46.170;6.140;2024-03-02T12:58:22;3.00;;;2.00;;
78416;SDS011;67715;46.170;6.140;2024-03-02T13:00:47;2.67;;;1.50;;
78416;SDS011;67715;46.170;6.140;2024-03-02T13:03:13;3.85;;;2.05;;
78416;SDS011;67715;46.170;6.140;2024-03-02T13:05:39;2.25;;;1.60;;
78416;SDS011;67715;46.170;6.140;2024-03-02T13:08:04;2.97;;;1.83;;
78416;SDS011;67715;46.170;6.140;2024-03-02T13:10:32;3.25;;;1.85;;
78416;SDS011;67715;46.170;6.140;2024-03-02T13:12:57;4.35;;;2.15;;
78416;SDS011;67715;46.170;6.140;2024-03-02T13:15:22;2.57;;;1.80;;
78416;SDS011;67715;46.170;6.140;2024-03-02T13:17:48;3.55;;;1.73;;
78416;SDS011;67715;46.170;6.140;2024-03-02T13:20:14;3.38;;;1.67;;
78416;SDS011;67715;46.170;6.140;2024-03-02T13:22:39;4.47;;;1.65;;
78416;SDS011;67715;46.170;6.140;2024-03-02T13:25:05;2.27;;;1.60;;
78416;SDS011;67715;46.170;6.140;2024-03-02T13:27:30;5.32;;;1.75;;
78416;SDS011;67715;46.170;6.140;2024-03-02T13:29:59;3.75;;;1.58;;
78416;SDS011;67715;46.170;6.140;2024-03-02T13:32:25;2.22;;;1.50;;
78416;SDS011;67715;46.170;6.140;2024-03-02T13:34:50;3.63;;;1.90;;
78416;SDS011;67715;46.170;6.140;2024-03-02T13:37:16;2.17;;;1.30;;
78416;SDS011;67715;46.170;6.140;2024-03-02T13:39:41;4.40;;;1.60;;
78416;SDS011;67715;46.170;6.140;2024-03-02T13:42:10;2.78;;;1.45;;
78416;SDS011;67715;46.170;6.140;2024-03-02T13:44:38;3.38;;;1.63;;
78416;SDS011;67715;46.170;6.140;2024-03-02T13:47:04;4.07;;;1.45;;
78416;SDS011;67715;46.170;6.140;2024-03-02T13:49:29;2.55;;;1.52;;
78416;SDS011;67715;46.170;6.140;2024-03-02T13:52:05;2.60;;;1.45;;
78416;SDS011;67715;46.170;6.140;2024-03-02T13:54:39;2.25;;;1.30;;
78416;SDS011;67715;46.170;6.140;2024-03-02T13:57:05;2.92;;;1.48;;
78416;SDS011;67715;46.170;6.140;2024-03-02T13:59:31;2.10;;;1.15;;
78416;SDS011;67715;46.170;6.140;2024-03-02T14:01:56;1.63;;;1.20;;
78416;SDS011;67715;46.170;6.140;2024-03-02T14:04:22;2.92;;;1.33;;
78416;SDS011;67715;46.170;6.140;2024-03-02T14:06:48;2.53;;;1.30;;
78416;SDS011;67715;46.170;6.140;2024-03-02T14:09:13;1.93;;;1.27;;
78416;SDS011;67715;46.170;6.140;2024-03-02T14:11:38;5.25;;;1.88;;
78416;SDS011;67715;46.170;6.140;2024-03-02T14:14:04;1.90;;;1.33;;
78416;SDS011;67715;46.170;6.140;2024-03-02T14:16:29;2.50;;;1.20;;
78416;SDS011;67715;46.170;6.140;2024-03-02T14:18:54;2.42;;;1.20;;
78416;SDS011;67715;46.170;6.140;2024-03-02T14:21:20;2.17;;;1.40;;
78416;SDS011;67715;46.170;6.140;2024-03-02T14:23:45;1.73;;;1.00;;
78416;SDS011;67715;46.170;6.140;2024-03-02T14:26:10;2.87;;;1.50;;
78416;SDS011;67715;46.170;6.140;2024-03-02T14:28:36;2.80;;;1.07;;
78416;SDS011;67715;46.170;6.140;2024-03-02T14:31:01;1.77;;;1.00;;
78416;SDS011;67715;46.170;6.140;2024-03-02T14:33:27;1.42;;;1.10;;
78416;SDS011;67715;46.170;6.140;2024-03-02T14:35:53;1.55;;;1.25;;
78416;SDS011;67715;46.170;6.140;2024-03-02T14:38:19;1.75;;;1.30;;
78416;SDS011;67715;46.170;6.140;2024-03-02T14:40:44;2.43;;;1.57;;
78416;SDS011;67715;46.170;6.140;2024-03-02T14:43:09;2.07;;;1.20;;
78416;SDS011;67715;46.170;6.140;2024-03-02T14:45:35;3.15;;;1.30;;
78416;SDS011;67715;46.170;6.140;2024-03-02T14:48:00;2.00;;;1.30;;
78416;SDS011;67715;46.170;6.140;2024-03-02T14:50:26;2.38;;;0.90;;